sensor_id;sensor_type;location;lat;lon;timestamp;P1;durP1;ratioP1;P2;durP2;ratioP2
43248;SDS011;29216;51.248;6.808;2024-01-15T00:01:20;36.78;;;17.70;;
43248;SDS011;29216;51.248;6.808;2024-01-15T00:03:47;33.67;;;17.20;;
43248;SDS011;29216;51.248;6.808;2024-01-15T00:06:13;38.33;;;17.98;;
43248;SDS011;29216;51.248;6.808;2024-01-15T00:08:39;37.05;;;18.13;;
43248;SDS011;29216;51.248;6.808;2024-01-15T00:11:05;39.13;;;17.33;;
43248;SDS011;29216;51.248;6.808;2024-01-15T00:13:31;35.05;;;18.25;;
43248;SDS011;29216;51.248;6.808;2024-01-15T00:15:57;36.17;;;17.25;;
43248;SDS011;29216;51.248;6.808;2024-01-15T00:18:23;34.33;;;17.70;;
43248;SDS011;29216;51.248;6.808;2024-01-15T00:20:49;37.30;;;18.52;;
43248;SDS011;29216;51.248;6.808;2024-01-15T00:23:15;35.80;;;17.88;;
43248;SDS011;29216;51.248;6.808;2024-01-15T00:25:41;36.80;;;18.75;;
43248;SDS011;29216;51.248;6.808;2024-01-15T00:28:07;35.00;;;17.73;;
43248;SDS011;29216;51.248;6.808;2024-01-15T00:30:33;34.25;;;17.48;;
43248;SDS011;29216;51.248;6.808;2024-01-15T00:32:59;35.70;;;19.30;;
43248;SDS011;29216;51.248;6.808;2024-01-15T00:35:25;32.15;;;16.95;;
43248;SDS011;29216;51.248;6.808;2024-01-15T00:37:51;37.58;;;18.23;;
43248;SDS011;29216;51.248;6.808;2024-01-15T00:40:17;35.08;;;17.80;;
43248;SDS011;29216;51.248;6.808;2024-01-15T00:42:43;33.70;;;18.30;;
43248;SDS011;29216;51.248;6.808;2024-01-15T00:45:09;37.40;;;19.25;;
43248;SDS011;29216;51.248;6.808;2024-01-15T00:47:35;34.20;;;17.88;;
43248;SDS011;29216;51.248;6.808;2024-01-15T00:50:01;37.83;;;18.17;;
43248;SDS011;29216;51.248;6.808;2024-01-15T00:52:28;34.63;;;17.10;;
43248;SDS011;29216;51.248;6.808;2024-01-15T00:54:54;34.72;;;17.50;;
43248;SDS011;29216;51.248;6.808;2024-01-15T00:57:20;32.55;;;17.35;;
43248;SDS011;29216;51.248;6.808;2024-01-15T00:59:46;30.88;;;17.05;;
43248;SDS011;29216;51.248;6.808;2024-01-15T01:02:13;36.42;;;18.48;;
43248;SDS011;29216;51.248;6.808;2024-01-15T01:04:39;34.28;;;17.10;;
43248;SDS011;29216;51.248;6.808;2024-01-15T01:07:05;33.97;;;16.98;;
43248;SDS011;29216;51.248;6.808;2024-01-15T01:09:31;37.83;;;18.30;;
43248;SDS011;29216;51.248;6.808;2024-01-15T01:11:57;32.72;;;17.40;;
43248;SDS011;29216;51.248;6.808;2024-01-15T01:14:23;31.00;;;17.15;;
43248;SDS011;29216;51.248;6.808;2024-01-15T01:16:49;35.08;;;17.17;;
43248;SDS011;29216;51.248;6.808;2024-01-15T01:19:15;36.55;;;17.40;;
43248;SDS011;29216;51.248;6.808;2024-01-15T01:21:41;33.50;;;17.48;;
43248;SDS011;29216;51.248;6.808;2024-01-15T01:24:07;35.72;;;17.40;;
43248;SDS011;29216;51.248;6.808;2024-01-15T01:26:33;31.65;;;16.83;;
43248;SDS011;29216;51.248;6.808;2024-01-15T01:28:59;32.42;;;17.75;;
43248;SDS011;29216;51.248;6.808;2024-01-15T01:31:25;34.28;;;18.02;;
43248;SDS011;29216;51.248;6.808;2024-01-15T01:33:52;33.20;;;17.70;;
43248;SDS011;29216;51.248;6.808;2024-01-15T01:36:17;34.88;;;17.70;;
43248;SDS011;29216;51.248;6.808;2024-01-15T01:38:44;33.75;;;16.85;;
43248;SDS011;29216;51.248;6.808;2024-01-15T01:41:10;31.70;;;16.90;;
43248;SDS011;29216;51.248;6.808;2024-01-15T01:43:36;33.88;;;16.67;;
43248;SDS011;29216;51.248;6.808;2024-01-15T01:46:02;28.58;;;15.55;;
43248;SDS011;29216;51.248;6.808;2024-01-15T01:48:28;33.53;;;17.00;;
43248;SDS011;29216;51.248;6.808;2024-01-15T01:50:59;31.98;;;15.95;;
43248;SDS011;29216;51.248;6.808;2024-01-15T01:53:28;31.13;;;16.42;;
43248;SDS011;29216;51.248;6.808;2024-01-15T01:55:55;27.88;;;16.25;;
43248;SDS011;29216;51.248;6.808;2024-01-15T01:58:22;29.08;;;16.45;;
43248;SDS011;29216;51.248;6.808;2024-01-15T02:00:48;31.05;;;16.10;;
43248;SDS011;29216;51.248;6.808;2024-01-15T02:03:14;27.88;;;15.15;;
43248;SDS011;29216;51.248;6.808;2024-01-15T02:05:40;29.60;;;14.98;;
43248;SDS011;29216;51.248;6.808;2024-01-15T02:08:08;31.10;;;14.98;;
43248;SDS011;29216;51.248;6.808;2024-01-15T02:10:34;28.83;;;15.63;;
43248;SDS011;29216;51.248;6.808;2024-01-15T02:13:00;26.70;;;13.85;;
43248;SDS011;29216;51.248;6.808;2024-01-15T02:15:26;28.75;;;14.85;;
43248;SDS011;29216;51.248;6.808;2024-01-15T02:20:24;26.85;;;14.48;;
43248;SDS011;29216;51.248;6.808;2024-01-15T02:22:51;34.03;;;16.45;;
43248;SDS011;29216;51.248;6.808;2024-01-15T02:25:17;23.48;;;14.10;;
43248;SDS011;29216;51.248;6.808;2024-01-15T02:27:43;30.23;;;13.60;;
43248;SDS011;29216;51.248;6.808;2024-01-15T02:30:10;25.20;;;14.90;;
43248;SDS011;29216;51.248;6.808;2024-01-15T02:32:37;27.63;;;14.55;;
43248;SDS011;29216;51.248;6.808;2024-01-15T02:35:03;27.33;;;13.57;;
43248;SDS011;29216;51.248;6.808;2024-01-15T02:37:29;29.30;;;13.20;;
43248;SDS011;29216;51.248;6.808;2024-01-15T02:39:55;26.77;;;12.63;;
43248;SDS011;29216;51.248;6.808;2024-01-15T02:42:21;21.83;;;11.40;;
43248;SDS011;29216;51.248;6.808;2024-01-15T02:44:47;26.92;;;13.05;;
43248;SDS011;29216;51.248;6.808;2024-01-15T02:47:13;25.05;;;12.38;;
43248;SDS011;29216;51.248;6.808;2024-01-15T02:49:40;24.05;;;12.43;;
43248;SDS011;29216;51.248;6.808;2024-01-15T02:52:06;23.25;;;11.38;;
43248;SDS011;29216;51.248;6.808;2024-01-15T02:54:32;22.60;;;11.45;;
43248;SDS011;29216;51.248;6.808;2024-01-15T02:56:58;20.60;;;11.68;;
43248;SDS011;29216;51.248;6.808;2024-01-15T02:59:24;23.30;;;12.10;;
43248;SDS011;29216;51.248;6.808;2024-01-15T03:01:50;20.23;;;11.70;;
43248;SDS011;29216;51.248;6.808;2024-01-15T03:04:16;21.05;;;11.80;;
43248;SDS011;29216;51.248;6.808;2024-01-15T03:06:42;24.98;;;11.98;;
43248;SDS011;29216;51.248;6.808;2024-01-15T03:09:08;19.70;;;11.30;;
43248;SDS011;29216;51.248;6.808;2024-01-15T03:11:38;23.73;;;12.50;;
43248;SDS011;29216;51.248;6.808;2024-01-15T03:14:04;25.45;;;11.95;;
43248;SDS011;29216;51.248;6.808;2024-01-15T03:16:30;24.15;;;12.60;;
43248;SDS011;29216;51.248;6.808;2024-01-15T03:18:56;23.52;;;11.23;;
43248;SDS011;29216;51.248;6.808;2024-01-15T03:21:22;19.65;;;10.90;;
43248;SDS011;29216;51.248;6.808;2024-01-15T03:23:48;23.38;;;11.70;;
43248;SDS011;29216;51.248;6.808;2024-01-15T03:26:14;19.58;;;11.27;;
43248;SDS011;29216;51.248;6.808;2024-01-15T03:28:40;19.08;;;11.45;;
43248;SDS011;29216;51.248;6.808;2024-01-15T03:31:07;19.85;;;11.13;;
43248;SDS011;29216;51.248;6.808;2024-01-15T03:33:33;22.75;;;10.55;;
43248;SDS011;29216;51.248;6.808;2024-01-15T03:35:59;20.38;;;10.82;;
43248;SDS011;29216;51.248;6.808;2024-01-15T03:38:27;22.05;;;11.45;;
43248;SDS011;29216;51.248;6.808;2024-01-15T03:40:53;20.35;;;10.60;;
43248;SDS011;29216;51.248;6.808;2024-01-15T03:43:19;17.73;;;10.25;;
43248;SDS011;29216;51.248;6.808;2024-01-15T03:45:45;19.27;;;10.88;;
43248;SDS011;29216;51.248;6.808;2024-01-15T03:48:11;17.55;;;9.93;;
43248;SDS011;29216;51.248;6.808;2024-01-15T03:50:37;20.80;;;10.38;;
43248;SDS011;29216;51.248;6.808;2024-01-15T03:53:03;26.92;;;10.77;;
43248;SDS011;29216;51.248;6.808;2024-01-15T03:55:29;18.63;;;10.73;;
43248;SDS011;29216;51.248;6.808;2024-01-15T03:57:55;18.85;;;10.48;;
43248;SDS011;29216;51.248;6.808;2024-01-15T04:00:22;16.80;;;9.98;;
43248;SDS011;29216;51.248;6.808;2024-01-15T04:02:48;24.73;;;10.20;;
43248;SDS011;29216;51.248;6.808;2024-01-15T04:05:14;20.48;;;11.32;;
43248;SDS011;29216;51.248;6.808;2024-01-15T04:07:40;17.98;;;10.48;;
43248;SDS011;29216;51.248;6.808;2024-01-15T04:10:06;22.42;;;10.20;;
43248;SDS011;29216;51.248;6.808;2024-01-15T04:12:32;15.93;;;10.60;;
43248;SDS011;29216;51.248;6.808;2024-01-15T04:14:58;20.00;;;10.98;;
43248;SDS011;29216;51.248;6.808;2024-01-15T04:17:24;20.48;;;11.05;;
43248;SDS011;29216;51.248;6.808;2024-01-15T04:19:50;19.45;;;9.88;;
43248;SDS011;29216;51.248;6.808;2024-01-15T04:22:16;18.42;;;10.55;;
43248;SDS011;29216;51.248;6.808;2024-01-15T04:24:42;16.27;;;9.70;;
43248;SDS011;29216;51.248;6.808;2024-01-15T04:27:08;20.33;;;10.10;;
43248;SDS011;29216;51.248;6.808;2024-01-15T04:29:34;15.10;;;9.38;;
43248;SDS011;29216;51.248;6.808;2024-01-15T04:32:00;19.65;;;11.15;;
43248;SDS011;29216;51.248;6.808;2024-01-15T04:34:26;14.18;;;9.45;;
43248;SDS011;29216;51.248;6.808;2024-01-15T04:36:52;20.70;;;9.85;;
43248;SDS011;29216;51.248;6.808;2024-01-15T04:39:18;18.08;;;9.98;;
43248;SDS011;29216;51.248;6.808;2024-01-15T04:41:44;17.20;;;9.57;;
43248;SDS011;29216;51.248;6.808;2024-01-15T04:44:10;15.70;;;9.68;;
43248;SDS011;29216;51.248;6.808;2024-01-15T04:46:36;19.02;;;9.23;;
43248;SDS011;29216;51.248;6.808;2024-01-15T04:49:02;15.68;;;8.55;;
43248;SDS011;29216;51.248;6.808;2024-01-15T04:51:28;17.00;;;9.20;;
43248;SDS011;29216;51.248;6.808;2024-01-15T04:53:54;13.25;;;8.20;;
43248;SDS011;29216;51.248;6.808;2024-01-15T04:56:20;16.17;;;8.93;;
43248;SDS011;29216;51.248;6.808;2024-01-15T04:58:46;16.88;;;8.80;;
43248;SDS011;29216;51.248;6.808;2024-01-15T05:01:12;15.45;;;9.52;;
43248;SDS011;29216;51.248;6.808;2024-01-15T05:03:38;16.27;;;8.25;;
43248;SDS011;29216;51.248;6.808;2024-01-15T05:06:04;16.63;;;8.63;;
43248;SDS011;29216;51.248;6.808;2024-01-15T05:08:30;14.32;;;8.80;;
43248;SDS011;29216;51.248;6.808;2024-01-15T05:10:56;20.17;;;8.48;;
43248;SDS011;29216;51.248;6.808;2024-01-15T05:13:22;15.65;;;8.10;;
43248;SDS011;29216;51.248;6.808;2024-01-15T05:15:48;13.48;;;7.30;;
43248;SDS011;29216;51.248;6.808;2024-01-15T05:18:14;16.48;;;9.23;;
43248;SDS011;29216;51.248;6.808;2024-01-15T05:20:40;15.63;;;7.90;;
43248;SDS011;29216;51.248;6.808;2024-01-15T05:23:07;17.15;;;8.32;;
43248;SDS011;29216;51.248;6.808;2024-01-15T05:25:33;15.63;;;8.05;;
43248;SDS011;29216;51.248;6.808;2024-01-15T05:27:59;16.90;;;8.45;;
43248;SDS011;29216;51.248;6.808;2024-01-15T05:30:25;13.35;;;8.52;;
43248;SDS011;29216;51.248;6.808;2024-01-15T05:32:51;18.58;;;8.52;;
43248;SDS011;29216;51.248;6.808;2024-01-15T05:35:17;10.30;;;6.97;;
43248;SDS011;29216;51.248;6.808;2024-01-15T05:37:44;13.30;;;7.97;;
43248;SDS011;29216;51.248;6.808;2024-01-15T05:40:11;14.52;;;8.45;;
43248;SDS011;29216;51.248;6.808;2024-01-15T05:42:38;13.32;;;7.18;;
43248;SDS011;29216;51.248;6.808;2024-01-15T05:45:04;11.93;;;6.50;;
43248;SDS011;29216;51.248;6.808;2024-01-15T05:47:30;14.18;;;8.05;;
43248;SDS011;29216;51.248;6.808;2024-01-15T05:49:56;13.05;;;7.45;;
43248;SDS011;29216;51.248;6.808;2024-01-15T05:52:22;13.02;;;7.35;;
43248;SDS011;29216;51.248;6.808;2024-01-15T05:54:49;16.05;;;6.60;;
43248;SDS011;29216;51.248;6.808;2024-01-15T05:57:15;13.85;;;6.90;;
43248;SDS011;29216;51.248;6.808;2024-01-15T05:59:42;17.08;;;6.47;;
43248;SDS011;29216;51.248;6.808;2024-01-15T06:02:08;11.60;;;7.05;;
43248;SDS011;29216;51.248;6.808;2024-01-15T06:04:34;13.50;;;7.45;;
43248;SDS011;29216;51.248;6.808;2024-01-15T06:07:03;12.20;;;6.47;;
43248;SDS011;29216;51.248;6.808;2024-01-15T06:09:29;10.63;;;7.00;;
43248;SDS011;29216;51.248;6.808;2024-01-15T06:11:56;13.60;;;6.28;;
43248;SDS011;29216;51.248;6.808;2024-01-15T06:14:22;12.55;;;6.65;;
43248;SDS011;29216;51.248;6.808;2024-01-15T06:16:48;13.98;;;6.85;;
43248;SDS011;29216;51.248;6.808;2024-01-15T06:19:14;13.60;;;6.80;;
43248;SDS011;29216;51.248;6.808;2024-01-15T06:21:40;12.95;;;6.32;;
43248;SDS011;29216;51.248;6.808;2024-01-15T06:24:06;9.32;;;6.10;;
43248;SDS011;29216;51.248;6.808;2024-01-15T06:26:34;10.10;;;6.47;;
43248;SDS011;29216;51.248;6.808;2024-01-15T06:29:00;9.10;;;5.90;;
43248;SDS011;29216;51.248;6.808;2024-01-15T06:31:27;10.63;;;5.95;;
43248;SDS011;29216;51.248;6.808;2024-01-15T06:33:54;10.45;;;6.05;;
43248;SDS011;29216;51.248;6.808;2024-01-15T06:36:20;12.25;;;5.68;;
43248;SDS011;29216;51.248;6.808;2024-01-15T06:38:46;13.25;;;6.20;;
43248;SDS011;29216;51.248;6.808;2024-01-15T06:41:12;10.88;;;6.53;;
43248;SDS011;29216;51.248;6.808;2024-01-15T06:43:38;12.55;;;6.15;;
43248;SDS011;29216;51.248;6.808;2024-01-15T06:46:04;8.63;;;5.05;;
43248;SDS011;29216;51.248;6.808;2024-01-15T06:48:30;9.40;;;5.85;;
43248;SDS011;29216;51.248;6.808;2024-01-15T06:50:56;12.30;;;5.03;;
43248;SDS011;29216;51.248;6.808;2024-01-15T06:53:22;10.52;;;4.50;;
43248;SDS011;29216;51.248;6.808;2024-01-15T06:55:48;8.15;;;4.88;;
43248;SDS011;29216;51.248;6.808;2024-01-15T06:58:16;7.18;;;5.35;;
43248;SDS011;29216;51.248;6.808;2024-01-15T07:00:42;9.55;;;5.00;;
43248;SDS011;29216;51.248;6.808;2024-01-15T07:03:08;9.30;;;5.10;;
43248;SDS011;29216;51.248;6.808;2024-01-15T07:05:34;10.07;;;4.95;;
43248;SDS011;29216;51.248;6.808;2024-01-15T07:08:02;10.85;;;5.50;;
43248;SDS011;29216;51.248;6.808;2024-01-15T07:10:28;8.98;;;5.45;;
43248;SDS011;29216;51.248;6.808;2024-01-15T07:12:54;9.10;;;6.05;;
43248;SDS011;29216;51.248;6.808;2024-01-15T07:15:20;9.80;;;6.45;;
43248;SDS011;29216;51.248;6.808;2024-01-15T07:17:46;16.15;;;7.05;;
43248;SDS011;29216;51.248;6.808;2024-01-15T07:20:12;10.02;;;6.60;;
43248;SDS011;29216;51.248;6.808;2024-01-15T07:22:38;14.80;;;7.00;;
43248;SDS011;29216;51.248;6.808;2024-01-15T07:25:04;11.27;;;6.82;;
43248;SDS011;29216;51.248;6.808;2024-01-15T07:27:31;15.07;;;8.25;;
43248;SDS011;29216;51.248;6.808;2024-01-15T07:29:57;16.45;;;8.00;;
43248;SDS011;29216;51.248;6.808;2024-01-15T07:32:23;11.15;;;8.13;;
43248;SDS011;29216;51.248;6.808;2024-01-15T07:34:49;13.65;;;8.18;;
43248;SDS011;29216;51.248;6.808;2024-01-15T07:37:15;14.73;;;8.02;;
43248;SDS011;29216;51.248;6.808;2024-01-15T07:39:41;15.52;;;8.57;;
43248;SDS011;29216;51.248;6.808;2024-01-15T07:42:07;15.02;;;8.77;;
43248;SDS011;29216;51.248;6.808;2024-01-15T07:44:33;21.27;;;10.40;;
43248;SDS011;29216;51.248;6.808;2024-01-15T07:46:59;13.05;;;8.63;;
43248;SDS011;29216;51.248;6.808;2024-01-15T07:49:25;12.25;;;7.43;;
43248;SDS011;29216;51.248;6.808;2024-01-15T07:51:51;17.65;;;8.25;;
43248;SDS011;29216;51.248;6.808;2024-01-15T07:54:17;13.27;;;8.38;;
43248;SDS011;29216;51.248;6.808;2024-01-15T07:56:53;14.25;;;7.20;;
43248;SDS011;29216;51.248;6.808;2024-01-15T07:59:19;11.77;;;7.32;;
43248;SDS011;29216;51.248;6.808;2024-01-15T08:01:45;10.57;;;7.78;;
43248;SDS011;29216;51.248;6.808;2024-01-15T08:04:12;14.80;;;8.80;;
43248;SDS011;29216;51.248;6.808;2024-01-15T08:06:38;14.38;;;8.15;;
43248;SDS011;29216;51.248;6.808;2024-01-15T08:09:04;11.75;;;7.80;;
43248;SDS011;29216;51.248;6.808;2024-01-15T08:11:30;12.80;;;8.65;;
43248;SDS011;29216;51.248;6.808;2024-01-15T08:13:56;12.63;;;7.82;;
43248;SDS011;29216;51.248;6.808;2024-01-15T08:16:22;15.35;;;7.95;;
43248;SDS011;29216;51.248;6.808;2024-01-15T08:18:50;11.30;;;7.80;;
43248;SDS011;29216;51.248;6.808;2024-01-15T08:21:16;13.98;;;8.98;;
43248;SDS011;29216;51.248;6.808;2024-01-15T08:23:42;14.60;;;9.20;;
43248;SDS011;29216;51.248;6.808;2024-01-15T08:26:08;16.15;;;8.68;;
43248;SDS011;29216;51.248;6.808;2024-01-15T08:28:34;13.35;;;8.40;;
43248;SDS011;29216;51.248;6.808;2024-01-15T08:31:00;16.38;;;8.85;;
43248;SDS011;29216;51.248;6.808;2024-01-15T08:33:26;12.85;;;8.43;;
43248;SDS011;29216;51.248;6.808;2024-01-15T08:35:52;16.42;;;9.70;;
43248;SDS011;29216;51.248;6.808;2024-01-15T08:38:18;16.10;;;8.70;;
43248;SDS011;29216;51.248;6.808;2024-01-15T08:40:44;12.40;;;7.70;;
43248;SDS011;29216;51.248;6.808;2024-01-15T08:43:10;11.27;;;8.18;;
43248;SDS011;29216;51.248;6.808;2024-01-15T08:45:36;14.00;;;8.65;;
43248;SDS011;29216;51.248;6.808;2024-01-15T08:48:02;13.02;;;7.95;;
43248;SDS011;29216;51.248;6.808;2024-01-15T08:50:29;13.80;;;8.55;;
43248;SDS011;29216;51.248;6.808;2024-01-15T08:52:55;17.92;;;8.98;;
43248;SDS011;29216;51.248;6.808;2024-01-15T08:55:21;14.60;;;8.65;;
43248;SDS011;29216;51.248;6.808;2024-01-15T08:57:47;12.95;;;8.20;;
43248;SDS011;29216;51.248;6.808;2024-01-15T09:00:13;13.15;;;8.48;;
43248;SDS011;29216;51.248;6.808;2024-01-15T09:02:40;11.85;;;8.00;;
43248;SDS011;29216;51.248;6.808;2024-01-15T09:05:06;20.50;;;8.38;;
43248;SDS011;29216;51.248;6.808;2024-01-15T09:07:32;12.68;;;8.98;;
43248;SDS011;29216;51.248;6.808;2024-01-15T09:09:58;11.07;;;7.68;;
43248;SDS011;29216;51.248;6.808;2024-01-15T09:12:24;11.63;;;8.18;;
43248;SDS011;29216;51.248;6.808;2024-01-15T09:14:50;14.95;;;8.82;;
43248;SDS011;29216;51.248;6.808;2024-01-15T09:17:17;12.40;;;8.25;;
43248;SDS011;29216;51.248;6.808;2024-01-15T09:19:43;12.00;;;8.02;;
43248;SDS011;29216;51.248;6.808;2024-01-15T09:22:09;12.13;;;8.35;;
43248;SDS011;29216;51.248;6.808;2024-01-15T09:24:35;12.07;;;8.90;;
43248;SDS011;29216;51.248;6.808;2024-01-15T09:27:01;12.70;;;8.63;;
43248;SDS011;29216;51.248;6.808;2024-01-15T09:29:27;19.20;;;9.18;;
43248;SDS011;29216;51.248;6.808;2024-01-15T09:31:53;11.95;;;9.27;;
43248;SDS011;29216;51.248;6.808;2024-01-15T09:34:19;12.57;;;9.07;;
43248;SDS011;29216;51.248;6.808;2024-01-15T09:36:45;14.10;;;9.95;;
43248;SDS011;29216;51.248;6.808;2024-01-15T09:39:12;14.20;;;9.02;;
43248;SDS011;29216;51.248;6.808;2024-01-15T09:41:38;10.95;;;8.50;;
43248;SDS011;29216;51.248;6.808;2024-01-15T09:44:04;10.70;;;8.93;;
43248;SDS011;29216;51.248;6.808;2024-01-15T09:46:32;9.55;;;7.40;;
43248;SDS011;29216;51.248;6.808;2024-01-15T09:48:59;10.00;;;7.05;;
43248;SDS011;29216;51.248;6.808;2024-01-15T09:51:27;9.55;;;7.57;;
43248;SDS011;29216;51.248;6.808;2024-01-15T09:53:54;10.50;;;6.97;;
43248;SDS011;29216;51.248;6.808;2024-01-15T09:56:20;10.85;;;7.03;;
43248;SDS011;29216;51.248;6.808;2024-01-15T09:58:46;9.63;;;6.32;;
43248;SDS011;29216;51.248;6.808;2024-01-15T10:01:13;9.57;;;6.93;;
43248;SDS011;29216;51.248;6.808;2024-01-15T10:03:40;8.90;;;6.95;;
43248;SDS011;29216;51.248;6.808;2024-01-15T10:06:09;8.75;;;6.25;;
43248;SDS011;29216;51.248;6.808;2024-01-15T10:08:36;8.13;;;6.30;;
43248;SDS011;29216;51.248;6.808;2024-01-15T10:11:04;8.10;;;6.45;;
43248;SDS011;29216;51.248;6.808;2024-01-15T10:13:30;8.52;;;6.80;;
43248;SDS011;29216;51.248;6.808;2024-01-15T10:15:56;8.68;;;6.30;;
43248;SDS011;29216;51.248;6.808;2024-01-15T10:18:23;9.07;;;5.97;;
43248;SDS011;29216;51.248;6.808;2024-01-15T10:20:49;7.10;;;5.20;;
43248;SDS011;29216;51.248;6.808;2024-01-15T10:23:15;7.45;;;5.63;;
43248;SDS011;29216;51.248;6.808;2024-01-15T10:25:41;6.45;;;5.32;;
43248;SDS011;29216;51.248;6.808;2024-01-15T10:28:08;8.18;;;5.38;;
43248;SDS011;29216;51.248;6.808;2024-01-15T10:30:34;6.65;;;5.15;;
43248;SDS011;29216;51.248;6.808;2024-01-15T10:33:01;7.22;;;4.95;;
43248;SDS011;29216;51.248;6.808;2024-01-15T10:35:31;6.75;;;4.32;;
43248;SDS011;29216;51.248;6.808;2024-01-15T10:37:58;5.32;;;4.38;;
43248;SDS011;29216;51.248;6.808;2024-01-15T10:40:24;5.57;;;4.57;;
43248;SDS011;29216;51.248;6.808;2024-01-15T10:42:50;6.30;;;4.15;;
43248;SDS011;29216;51.248;6.808;2024-01-15T10:45:16;4.95;;;4.20;;
43248;SDS011;29216;51.248;6.808;2024-01-15T10:47:42;8.35;;;4.65;;
43248;SDS011;29216;51.248;6.808;2024-01-15T10:50:08;5.78;;;4.20;;
43248;SDS011;29216;51.248;6.808;2024-01-15T10:52:35;5.63;;;4.15;;
43248;SDS011;29216;51.248;6.808;2024-01-15T10:55:02;6.03;;;3.95;;
43248;SDS011;29216;51.248;6.808;2024-01-15T10:57:29;6.95;;;4.35;;
43248;SDS011;29216;51.248;6.808;2024-01-15T10:59:55;4.75;;;4.18;;
43248;SDS011;29216;51.248;6.808;2024-01-15T11:02:23;4.70;;;3.83;;
43248;SDS011;29216;51.248;6.808;2024-01-15T11:04:50;7.15;;;4.03;;
43248;SDS011;29216;51.248;6.808;2024-01-15T11:07:16;6.53;;;3.80;;
43248;SDS011;29216;51.248;6.808;2024-01-15T11:09:41;6.22;;;3.55;;
43248;SDS011;29216;51.248;6.808;2024-01-15T11:12:12;5.60;;;3.42;;
43248;SDS011;29216;51.248;6.808;2024-01-15T11:14:41;4.30;;;3.38;;
43248;SDS011;29216;51.248;6.808;2024-01-15T11:17:11;5.75;;;3.28;;
43248;SDS011;29216;51.248;6.808;2024-01-15T11:19:38;4.60;;;2.72;;
43248;SDS011;29216;51.248;6.808;2024-01-15T11:22:08;6.55;;;2.65;;
43248;SDS011;29216;51.248;6.808;2024-01-15T11:27:04;6.82;;;2.70;;
43248;SDS011;29216;51.248;6.808;2024-01-15T11:29:31;4.55;;;2.35;;
43248;SDS011;29216;51.248;6.808;2024-01-15T11:32:04;3.15;;;2.42;;
43248;SDS011;29216;51.248;6.808;2024-01-15T11:37:55;4.35;;;2.00;;
43248;SDS011;29216;51.248;6.808;2024-01-15T11:40:17;8.50;;;2.80;;
43248;SDS011;29216;51.248;6.808;2024-01-15T11:42:46;5.38;;;2.40;;
43248;SDS011;29216;51.248;6.808;2024-01-15T11:45:16;4.40;;;2.53;;
43248;SDS011;29216;51.248;6.808;2024-01-15T11:47:51;5.55;;;2.35;;
43248;SDS011;29216;51.248;6.808;2024-01-15T11:50:21;3.50;;;2.70;;
43248;SDS011;29216;51.248;6.808;2024-01-15T11:53:01;5.55;;;2.50;;
43248;SDS011;29216;51.248;6.808;2024-01-15T11:55:27;4.05;;;2.60;;
43248;SDS011;29216;51.248;6.808;2024-01-15T11:57:55;4.65;;;2.80;;
43248;SDS011;29216;51.248;6.808;2024-01-15T12:00:23;7.60;;;2.67;;
43248;SDS011;29216;51.248;6.808;2024-01-15T12:02:49;3.58;;;2.65;;
43248;SDS011;29216;51.248;6.808;2024-01-15T12:05:22;5.75;;;2.70;;
43248;SDS011;29216;51.248;6.808;2024-01-15T12:07:49;4.80;;;2.80;;
43248;SDS011;29216;51.248;6.808;2024-01-15T12:15:13;5.00;;;2.50;;
43248;SDS011;29216;51.248;6.808;2024-01-15T12:17:43;4.78;;;3.00;;
43248;SDS011;29216;51.248;6.808;2024-01-15T12:20:09;5.65;;;2.72;;
43248;SDS011;29216;51.248;6.808;2024-01-15T12:22:35;4.65;;;2.42;;
43248;SDS011;29216;51.248;6.808;2024-01-15T12:25:03;5.00;;;2.60;;
43248;SDS011;29216;51.248;6.808;2024-01-15T12:27:29;7.40;;;2.92;;
43248;SDS011;29216;51.248;6.808;2024-01-15T12:29:55;6.10;;;3.63;;
43248;SDS011;29216;51.248;6.808;2024-01-15T12:32:21;8.95;;;3.60;;
43248;SDS011;29216;51.248;6.808;2024-01-15T12:34:48;4.80;;;3.33;;
43248;SDS011;29216;51.248;6.808;2024-01-15T12:37:14;6.70;;;3.75;;
43248;SDS011;29216;51.248;6.808;2024-01-15T12:39:44;7.72;;;4.15;;
43248;SDS011;29216;51.248;6.808;2024-01-15T12:42:10;8.65;;;4.05;;
43248;SDS011;29216;51.248;6.808;2024-01-15T12:44:36;5.90;;;3.83;;
43248;SDS011;29216;51.248;6.808;2024-01-15T12:47:05;5.65;;;4.03;;
43248;SDS011;29216;51.248;6.808;2024-01-15T12:49:31;7.32;;;4.20;;
43248;SDS011;29216;51.248;6.808;2024-01-15T12:51:57;7.35;;;4.25;;
43248;SDS011;29216;51.248;6.808;2024-01-15T12:54:23;6.95;;;4.95;;
43248;SDS011;29216;51.248;6.808;2024-01-15T12:56:50;6.70;;;4.03;;
43248;SDS011;29216;51.248;6.808;2024-01-15T12:59:16;7.93;;;4.82;;
43248;SDS011;29216;51.248;6.808;2024-01-15T13:01:42;7.90;;;4.63;;
43248;SDS011;29216;51.248;6.808;2024-01-15T13:04:11;6.32;;;5.22;;
43248;SDS011;29216;51.248;6.808;2024-01-15T13:06:37;8.38;;;4.28;;
43248;SDS011;29216;51.248;6.808;2024-01-15T13:09:03;5.68;;;4.38;;
43248;SDS011;29216;51.248;6.808;2024-01-15T13:11:31;6.97;;;4.22;;
43248;SDS011;29216;51.248;6.808;2024-01-15T13:13:57;8.65;;;3.90;;
43248;SDS011;29216;51.248;6.808;2024-01-15T13:16:23;7.35;;;4.15;;
43248;SDS011;29216;51.248;6.808;2024-01-15T13:18:52;13.00;;;4.53;;
43248;SDS011;29216;51.248;6.808;2024-01-15T13:21:18;5.38;;;3.63;;
43248;SDS011;29216;51.248;6.808;2024-01-15T13:23:44;6.22;;;3.70;;
43248;SDS011;29216;51.248;6.808;2024-01-15T13:26:10;7.95;;;3.80;;
43248;SDS011;29216;51.248;6.808;2024-01-15T13:28:36;11.20;;;4.00;;
43248;SDS011;29216;51.248;6.808;2024-01-15T13:31:02;9.48;;;3.85;;
43248;SDS011;29216;51.248;6.808;2024-01-15T13:33:27;5.43;;;3.50;;
43248;SDS011;29216;51.248;6.808;2024-01-15T13:35:53;6.03;;;3.38;;
43248;SDS011;29216;51.248;6.808;2024-01-15T13:38:19;4.03;;;2.72;;
43248;SDS011;29216;51.248;6.808;2024-01-15T13:40:45;3.10;;;2.80;;
43248;SDS011;29216;51.248;6.808;2024-01-15T13:43:11;6.03;;;2.95;;
43248;SDS011;29216;51.248;6.808;2024-01-15T13:45:39;2.83;;;2.58;;
43248;SDS011;29216;51.248;6.808;2024-01-15T13:48:05;4.72;;;2.90;;
43248;SDS011;29216;51.248;6.808;2024-01-15T13:50:31;7.97;;;3.03;;
43248;SDS011;29216;51.248;6.808;2024-01-15T13:52:57;2.95;;;2.75;;
43248;SDS011;29216;51.248;6.808;2024-01-15T13:55:23;5.35;;;2.72;;
43248;SDS011;29216;51.248;6.808;2024-01-15T13:57:49;1.90;;;1.80;;
43248;SDS011;29216;51.248;6.808;2024-01-15T14:00:16;2.30;;;2.10;;
43248;SDS011;29216;51.248;6.808;2024-01-15T14:02:44;3.28;;;1.98;;
43248;SDS011;29216;51.248;6.808;2024-01-15T14:05:11;2.38;;;2.13;;
43248;SDS011;29216;51.248;6.808;2024-01-15T14:07:40;2.85;;;2.20;;
43248;SDS011;29216;51.248;6.808;2024-01-15T14:10:09;2.47;;;2.00;;
43248;SDS011;29216;51.248;6.808;2024-01-15T14:12:35;3.53;;;1.90;;
43248;SDS011;29216;51.248;6.808;2024-01-15T14:15:02;2.08;;;1.70;;
43248;SDS011;29216;51.248;6.808;2024-01-15T14:17:28;2.05;;;1.70;;
43248;SDS011;29216;51.248;6.808;2024-01-15T14:19:54;5.13;;;1.70;;
43248;SDS011;29216;51.248;6.808;2024-01-15T14:22:20;2.55;;;1.80;;
43248;SDS011;29216;51.248;6.808;2024-01-15T14:24:46;3.70;;;1.70;;
43248;SDS011;29216;51.248;6.808;2024-01-15T14:27:12;2.20;;;1.73;;
43248;SDS011;29216;51.248;6.808;2024-01-15T14:29:38;1.92;;;1.80;;
43248;SDS011;29216;51.248;6.808;2024-01-15T14:32:04;4.07;;;1.70;;
43248;SDS011;29216;51.248;6.808;2024-01-15T14:34:30;3.35;;;1.80;;
43248;SDS011;29216;51.248;6.808;2024-01-15T14:36:56;3.75;;;2.30;;
43248;SDS011;29216;51.248;6.808;2024-01-15T14:39:22;2.25;;;1.88;;
43248;SDS011;29216;51.248;6.808;2024-01-15T14:41:49;3.92;;;2.35;;
43248;SDS011;29216;51.248;6.808;2024-01-15T14:44:15;2.80;;;1.80;;